createdAt,value
2022-08-02T10:07:15.782Z,95.53
2022-08-02T10:16:01.996Z,97.37
2022-08-02T10:17:01.968Z,94.84
2022-08-02T10:45:14.229Z,91.73
2022-08-02T10:46:14.216Z,89.73
2022-08-02T10:47:15.196Z,89.04
2022-08-02T10:48:14.202Z,88.27
2022-08-02T10:49:38.098Z,90.26
2022-08-02T10:50:14.269Z,89.00
2022-08-02T10:51:14.140Z,88.51
2022-08-02T10:52:14.478Z,88.51
2022-08-02T10:53:14.135Z,87.67
2022-08-02T10:54:14.115Z,87.96
2022-08-02T10:55:14.913Z,88.06
2022-08-02T10:56:14.085Z,87.96
2022-08-02T10:57:15.354Z,86.80
2022-08-02T10:58:14.086Z,87.24
2022-08-02T10:59:14.058Z,86.46
2022-08-02T11:00:17.312Z,87.73
2022-08-02T11:01:14.087Z,87.82
2022-08-02T11:02:14.395Z,87.19
2022-08-02T11:03:14.013Z,88.26
2022-08-02T11:04:14.013Z,86.45
2022-08-02T11:05:13.993Z,87.04
2022-08-02T11:06:24.701Z,86.60
2022-08-02T11:07:13.964Z,87.04
2022-08-02T11:08:13.964Z,87.29
2022-08-02T11:09:13.960Z,87.62
2022-08-02T11:10:13.932Z,87.33
2022-08-02T11:11:13.923Z,86.69
2022-08-02T11:12:14.252Z,85.47
2022-08-02T11:13:13.898Z,86.44
2022-08-02T11:14:13.903Z,85.85
2022-08-02T11:15:13.878Z,85.35
2022-08-02T11:16:13.870Z,84.22
2022-08-02T11:17:13.868Z,83.14
2022-08-02T11:18:13.856Z,84.41
2022-08-02T11:19:13.850Z,81.03
2022-08-02T11:20:13.827Z,80.25
2022-08-02T11:21:13.815Z,80.05
2022-08-02T11:22:14.191Z,81.82
2022-08-02T11:23:13.806Z,81.54
2022-08-02T11:24:13.832Z,81.15
2022-08-02T11:25:13.776Z,80.99
2022-08-02T11:26:13.765Z,80.64
2022-08-02T11:27:13.784Z,80.10
2022-08-02T11:28:13.755Z,81.01
2022-08-02T11:29:15.430Z,80.43
2022-08-02T11:30:13.744Z,78.86
2022-08-02T11:31:13.732Z,77.84
2022-08-02T11:32:14.203Z,78.23
2022-08-02T11:33:13.695Z,79.51
2022-08-02T11:34:36.727Z,80.23
2022-08-02T11:35:13.684Z,77.10
2022-08-02T11:36:13.681Z,78.35
2022-08-02T11:37:13.660Z,77.57
2022-08-02T11:38:13.658Z,75.81
2022-08-02T11:39:15.957Z,75.12
2022-08-02T11:40:19.399Z,75.08
2022-08-02T11:41:13.615Z,74.82
2022-08-02T11:42:13.920Z,75.82
2022-08-02T11:43:13.595Z,74.48
2022-08-02T11:44:13.602Z,74.12
2022-08-02T11:45:13.586Z,74.69
2022-08-02T11:46:13.575Z,74.06
2022-08-02T11:47:13.556Z,73.33
2022-08-02T11:48:13.550Z,73.69
2022-08-02T11:49:13.610Z,74.07
2022-08-02T11:50:13.540Z,75.44
2022-08-02T11:51:13.532Z,76.48
2022-08-02T11:52:13.776Z,75.07
2022-08-02T11:53:13.501Z,75.15
2022-08-02T11:54:13.523Z,73.74
2022-08-02T11:55:13.485Z,76.93
2022-08-02T11:56:13.486Z,76.01
2022-08-02T11:57:17.082Z,76.86
2022-08-02T11:58:13.470Z,78.14
2022-08-02T11:59:14.688Z,79.57
2022-08-02T12:00:13.481Z,79.25
2022-08-02T12:01:13.435Z,77.56
2022-08-02T12:02:13.883Z,78.89
2022-08-02T12:03:16.509Z,79.33
2022-08-02T12:04:13.428Z,80.21
2022-08-02T12:05:13.388Z,80.02
2022-08-02T12:06:16.711Z,80.02
2022-08-02T12:07:14.906Z,79.61
2022-08-02T12:08:13.380Z,78.55
2022-08-02T12:09:18.165Z,77.20
2022-08-02T12:10:16.908Z,77.59
2022-08-02T12:11:13.340Z,77.58
2022-08-02T12:12:13.770Z,75.13
2022-08-02T12:13:13.313Z,74.26
2022-08-02T12:14:13.324Z,73.55
2022-08-02T12:15:13.338Z,72.77
2022-08-02T12:16:13.290Z,72.18
2022-08-02T12:17:13.270Z,71.47
2022-08-02T12:18:13.273Z,71.01
2022-08-02T12:19:14.432Z,71.77
2022-08-02T12:20:13.253Z,70.39
2022-08-02T12:21:13.233Z,70.81
2022-08-02T12:22:13.499Z,71.23
2022-08-02T12:23:13.224Z,72.25
2022-08-02T12:24:13.229Z,71.17
2022-08-02T12:25:13.196Z,70.65
2022-08-02T12:26:16.154Z,73.00
2022-08-02T12:27:13.180Z,71.43
2022-08-02T12:28:17.214Z,71.33
2022-08-02T12:29:13.174Z,71.70
2022-08-02T12:30:13.150Z,71.37
2022-08-02T12:31:13.151Z,69.54
2022-08-02T12:32:13.618Z,68.37
2022-08-02T12:33:13.428Z,67.77
2022-08-02T12:34:13.127Z,68.10
2022-08-02T12:35:13.106Z,69.28
2022-08-02T12:36:13.108Z,68.92
2022-08-02T12:37:13.087Z,69.45
2022-08-02T12:38:13.089Z,68.59
2022-08-02T12:39:13.080Z,68.85
2022-08-02T12:40:13.064Z,70.29
2022-08-02T12:41:31.114Z,69.47
2022-08-02T12:42:13.342Z,70.98
2022-08-02T12:43:13.048Z,68.52
2022-08-02T12:44:13.044Z,70.12
2022-08-02T12:45:13.021Z,71.40
2022-08-02T12:46:13.011Z,71.37
2022-08-02T12:47:13.013Z,70.62
2022-08-02T12:48:13.004Z,69.02
2022-08-02T12:49:18.343Z,68.13
2022-08-02T12:50:12.977Z,69.77
2022-08-02T12:51:12.977Z,68.23
2022-08-02T12:52:13.173Z,67.32
2022-08-02T12:53:12.952Z,69.80
2022-08-02T12:54:12.962Z,70.00
2022-08-02T12:55:12.938Z,69.54
2022-08-02T12:56:12.928Z,69.24
2022-08-02T12:57:12.954Z,71.04
2022-08-02T12:58:12.910Z,71.33
2022-08-02T12:59:12.919Z,68.00
2022-08-02T13:00:12.917Z,70.75
2022-08-02T13:01:12.886Z,71.01
2022-08-02T13:02:13.652Z,68.59
2022-08-02T13:04:11.009Z,69.38
2022-08-02T13:04:14.086Z,70.10
2022-08-02T13:05:12.874Z,68.30
2022-08-02T13:06:40.735Z,68.04
2022-08-02T13:07:12.848Z,67.22
2022-08-02T13:08:12.840Z,68.01
2022-08-02T13:09:12.825Z,67.05
2022-08-02T13:10:12.850Z,67.68
2022-08-02T13:11:12.812Z,68.46
2022-08-02T13:12:13.156Z,68.33
2022-08-02T13:13:12.795Z,68.43
2022-08-02T13:14:12.799Z,69.05
2022-08-02T13:15:49.107Z,67.77
2022-08-02T13:16:12.774Z,70.03
2022-08-02T13:17:12.774Z,68.26
2022-08-02T13:18:12.758Z,68.36
2022-08-02T13:19:12.759Z,71.33
2022-08-02T13:20:12.747Z,70.45
2022-08-02T13:21:19.723Z,68.13
2022-08-02T13:22:13.352Z,69.60
2022-08-02T13:23:20.947Z,69.34
2022-08-02T13:24:32.951Z,70.19
2022-08-02T13:25:12.713Z,69.77
2022-08-02T13:26:12.686Z,66.69
2022-08-02T13:27:12.684Z,65.32
2022-08-02T13:28:12.681Z,65.16
2022-08-02T13:29:12.660Z,64.40
2022-08-02T13:30:12.680Z,64.01
2022-08-02T13:31:35.126Z,64.34
2022-08-02T13:32:12.802Z,66.01
2022-08-02T13:33:12.631Z,66.60
2022-08-02T13:34:12.623Z,66.96
2022-08-02T13:35:17.774Z,65.68
2022-08-02T13:36:12.611Z,67.71
2022-08-02T13:37:12.614Z,68.26
2022-08-02T13:38:12.627Z,69.41
2022-08-02T13:39:12.594Z,69.51
2022-08-02T13:40:21.721Z,68.49
2022-08-02T13:41:12.575Z,67.77
2022-08-02T13:42:16.864Z,69.83
2022-08-02T13:43:12.603Z,69.99
2022-08-02T13:44:12.552Z,69.89
2022-08-02T13:45:14.134Z,70.12
2022-08-02T13:46:12.547Z,70.03
2022-08-02T13:47:12.541Z,69.21
2022-08-02T13:48:17.045Z,69.40
2022-08-02T13:49:17.929Z,69.34
2022-08-02T13:50:12.565Z,69.04
2022-08-02T13:51:14.885Z,69.92
2022-08-02T13:52:12.722Z,70.54
2022-08-02T13:53:12.497Z,69.89
2022-08-02T13:54:12.485Z,70.32
2022-08-02T13:55:12.865Z,69.76
2022-08-02T13:56:12.459Z,71.31
2022-08-02T13:57:12.468Z,68.72
2022-08-02T13:58:12.456Z,68.82
2022-08-02T13:59:54.251Z,68.46
2022-08-02T14:00:12.434Z,68.46
2022-08-02T14:01:12.492Z,70.06
2022-08-02T14:02:12.794Z,70.39
2022-08-02T14:03:12.519Z,71.17
2022-08-02T14:04:12.401Z,72.31
2022-08-02T14:05:12.402Z,69.73
2022-08-02T14:06:12.403Z,69.73
2022-08-02T14:07:12.384Z,70.12
2022-08-02T14:08:16.355Z,70.03
2022-08-02T14:09:15.737Z,70.84
2022-08-02T14:10:12.369Z,71.42
2022-08-02T14:11:12.368Z,70.48
2022-08-02T14:12:12.620Z,70.03
2022-08-02T14:13:12.343Z,69.99
2022-08-02T14:14:15.852Z,68.65
2022-08-02T14:15:12.347Z,70.19
2022-08-02T14:16:12.336Z,71.17
2022-08-02T14:17:12.365Z,71.20
2022-08-02T14:18:12.316Z,71.33
2022-08-02T14:19:16.852Z,71.17
2022-08-02T14:20:17.967Z,68.76
2022-08-02T14:21:12.310Z,68.16
2022-08-02T14:22:12.582Z,67.05
2022-08-02T14:23:12.280Z,68.20
2022-08-02T14:24:12.276Z,69.21
2022-08-02T14:25:12.260Z,68.04
2022-08-02T14:26:27.413Z,68.56
2022-08-02T14:27:12.260Z,68.10
2022-08-02T14:28:12.254Z,67.51
2022-08-02T14:29:12.232Z,68.07
2022-08-02T14:30:12.244Z,68.69
2022-08-02T14:31:12.235Z,68.01
2022-08-02T14:32:12.454Z,67.61
2022-08-02T14:33:12.217Z,68.69
2022-08-02T14:34:12.208Z,68.13
2022-08-02T14:35:12.210Z,68.99
2022-08-02T14:36:12.200Z,66.11
2022-08-02T14:37:12.182Z,65.55
2022-08-02T14:38:12.197Z,65.91
2022-08-02T14:39:12.175Z,66.33
2022-08-02T14:40:27.689Z,66.14
2022-08-02T14:41:12.186Z,66.14
2022-08-02T14:42:12.475Z,66.30
2022-08-02T14:43:15.356Z,65.06
2022-08-02T14:44:12.151Z,65.12
2022-08-02T14:45:12.144Z,66.14
2022-08-02T14:46:12.144Z,65.42
2022-08-02T14:47:12.140Z,66.36
2022-08-02T14:48:12.136Z,66.17
2022-08-02T14:49:14.146Z,67.02
2022-08-02T14:50:14.078Z,67.25
2022-08-02T14:51:12.121Z,67.74
2022-08-02T14:52:12.394Z,67.32
2022-08-02T14:53:13.162Z,66.50
2022-08-02T14:54:12.101Z,65.31
2022-08-02T14:55:17.036Z,65.31
2022-08-02T14:56:12.098Z,64.73
2022-08-02T14:57:12.081Z,64.59
2022-08-02T14:58:12.081Z,64.73
2022-08-02T14:59:12.085Z,65.09
2022-08-02T15:00:12.072Z,66.40
2022-08-02T15:01:12.190Z,65.22
2022-08-02T15:02:13.964Z,64.92
2022-08-02T15:03:12.081Z,65.22
2022-08-02T15:04:12.059Z,65.28
2022-08-02T15:05:12.057Z,65.19
2022-08-02T15:06:12.072Z,64.11
2022-08-02T15:07:12.052Z,64.40
2022-08-02T15:08:12.052Z,64.30
2022-08-02T15:09:12.059Z,64.30
2022-08-02T15:10:12.063Z,64.69
2022-08-02T15:11:12.061Z,63.84
2022-08-02T15:12:12.361Z,62.88
2022-08-02T15:13:12.045Z,63.12
2022-08-02T15:14:12.037Z,62.43
2022-08-02T15:15:12.042Z,63.54
2022-08-02T15:16:12.049Z,62.09
2022-08-02T15:17:12.030Z,63.28
2022-08-02T15:18:12.022Z,61.93
2022-08-02T15:19:12.020Z,63.71
2022-08-02T15:20:24.738Z,66.07
2022-08-02T15:21:40.355Z,64.76
2022-08-02T15:22:16.202Z,64.11
2022-08-02T15:23:12.006Z,64.17
2022-08-02T15:24:12.009Z,64.69
2022-08-02T15:25:14.623Z,63.78
2022-08-02T15:26:12.023Z,63.97
2022-08-02T15:27:11.991Z,63.64
2022-08-02T15:28:11.990Z,63.45
2022-08-02T15:29:11.987Z,63.87
2022-08-02T15:30:11.992Z,63.98
2022-08-02T15:31:12.010Z,65.38
2022-08-02T15:32:12.545Z,64.66
2022-08-02T15:33:11.991Z,64.96
2022-08-02T15:34:11.985Z,64.53
2022-08-02T15:35:11.984Z,65.12
2022-08-02T15:36:11.993Z,63.87
2022-08-02T15:37:11.977Z,64.59
2022-08-02T15:38:11.977Z,65.35
2022-08-02T15:39:11.977Z,64.33
2022-08-02T15:40:11.975Z,65.22
2022-08-02T15:41:11.984Z,64.86
2022-08-02T15:42:12.304Z,64.73
2022-08-02T15:43:11.977Z,63.57
2022-08-02T15:44:11.956Z,62.59
2022-08-02T15:45:14.621Z,64.21
2022-08-02T15:46:11.965Z,65.75
2022-08-02T15:47:11.955Z,67.87
2022-08-02T15:48:11.951Z,69.99
2022-08-02T15:49:12.043Z,70.51
2022-08-02T15:50:11.947Z,70.54
2022-08-02T15:51:11.961Z,69.31
2022-08-02T15:52:12.261Z,67.12
2022-08-02T15:53:11.941Z,66.89
2022-08-02T15:54:11.941Z,65.28
2022-08-02T15:55:11.950Z,63.91
2022-08-02T15:56:13.107Z,63.67
2022-08-02T15:57:11.941Z,63.44
2022-08-02T15:58:16.809Z,62.43
2022-08-02T15:59:11.943Z,63.51
2022-08-02T16:00:18.122Z,63.05
2022-08-02T16:01:12.004Z,64.16
2022-08-02T16:02:12.292Z,62.41
2022-08-02T16:03:11.928Z,61.53
2022-08-02T16:04:11.926Z,62.71
2022-08-02T16:05:14.233Z,63.51
2022-08-02T16:06:11.930Z,63.31
2022-08-02T16:07:11.909Z,63.67
2022-08-02T16:08:11.915Z,63.53
2022-08-02T16:09:11.915Z,60.94
2022-08-02T16:10:11.919Z,61.66
2022-08-02T16:11:11.962Z,61.53
2022-08-02T16:12:12.164Z,63.28
2022-08-02T16:13:11.902Z,63.48
2022-08-02T16:14:11.894Z,63.12
2022-08-02T16:15:11.910Z,63.51
2022-08-02T16:16:11.912Z,64.07
2022-08-02T16:17:11.894Z,63.98
2022-08-02T16:18:11.906Z,63.91
2022-08-02T16:19:46.587Z,63.32
2022-08-02T16:20:11.900Z,63.15
2022-08-02T16:21:11.904Z,64.27
2022-08-02T16:22:12.369Z,64.27
2022-08-02T16:23:11.892Z,65.09
2022-08-02T16:24:11.898Z,63.09
2022-08-02T16:25:17.357Z,64.20
2022-08-02T16:26:11.906Z,64.99
2022-08-02T16:27:11.894Z,65.55
2022-08-02T16:28:11.897Z,65.81
2022-08-02T16:29:11.887Z,66.93
2022-08-02T16:30:11.894Z,67.45
2022-08-02T16:31:11.923Z,65.97
2022-08-02T16:32:12.115Z,64.37
2022-08-02T16:33:11.883Z,63.68
2022-08-02T16:34:11.900Z,64.01
2022-08-02T16:35:11.889Z,63.94
2022-08-02T16:36:11.899Z,63.25
2022-08-02T16:37:12.126Z,63.74
2022-08-02T16:38:11.878Z,63.22
2022-08-02T16:39:11.943Z,63.91
2022-08-02T16:40:11.921Z,64.99
2022-08-02T16:41:11.879Z,64.11
2022-08-02T16:42:11.869Z,64.99
2022-08-02T16:43:11.878Z,64.86
2022-08-02T16:44:11.875Z,64.23
2022-08-02T16:45:11.862Z,63.28
2022-08-02T16:46:11.872Z,63.67
2022-08-02T16:47:12.419Z,64.43
2022-08-02T16:48:11.857Z,65.02
2022-08-02T16:49:56.585Z,64.43
2022-08-02T16:50:12.018Z,64.36
2022-08-02T16:51:13.635Z,64.73
2022-08-02T16:52:11.850Z,64.30
2022-08-02T16:53:15.692Z,65.36
2022-08-02T16:54:11.845Z,66.76
2022-08-02T16:55:11.849Z,67.32
2022-08-02T16:56:11.845Z,68.46
2022-08-02T16:57:14.393Z,68.59
2022-08-02T16:58:11.838Z,68.98
2022-08-02T16:59:12.810Z,68.98
2022-08-02T17:00:11.830Z,68.79
2022-08-02T17:01:11.890Z,69.05
2022-08-02T17:02:18.509Z,68.91
2022-08-02T17:03:13.164Z,69.21
2022-08-02T17:04:11.814Z,70.03
2022-08-02T17:05:14.451Z,70.68
2022-08-02T17:06:11.816Z,70.68
2022-08-02T17:08:08.274Z,70.74
2022-08-02T17:08:17.359Z,70.74
2022-08-02T17:09:11.806Z,70.87
2022-08-02T17:10:11.796Z,70.74
2022-08-02T17:11:11.787Z,70.78
2022-08-02T17:12:15.816Z,70.61
2022-08-02T17:13:12.266Z,70.32
2022-08-02T17:14:11.785Z,70.55
2022-08-02T17:16:08.035Z,70.75
2022-08-02T17:17:14.527Z,69.93
2022-08-02T17:18:11.769Z,70.71
2022-08-02T17:19:11.768Z,70.61
2022-08-02T17:20:11.751Z,70.81
2022-08-02T17:21:11.763Z,70.48
2022-08-02T17:22:11.989Z,71.00
2022-08-02T17:23:16.391Z,71.36
2022-08-02T17:24:11.743Z,72.44
2022-08-02T17:25:11.740Z,71.62
2022-08-02T17:26:13.293Z,72.11
2022-08-02T17:27:11.921Z,72.41
2022-08-02T17:28:11.709Z,72.47
2022-08-02T17:29:15.569Z,72.37
2022-08-02T17:30:11.708Z,73.15
2022-08-02T17:31:11.695Z,73.21
2022-08-02T17:32:11.834Z,74.29
2022-08-02T17:33:11.683Z,73.99
2022-08-02T17:34:11.705Z,73.02
2022-08-02T17:35:11.686Z,74.19
2022-08-02T17:36:11.664Z,73.41
2022-08-02T17:37:11.668Z,74.19
2022-08-02T22:58:49.252Z,70.65
